sensor_id;sensor_type;location;lat;lon;timestamp;P1;durP1;ratioP1;P2;durP2;ratioP2
41233;SDS011;26968;42.686;23.352;2023-04-06T00:01:34;20.95;;;11.80;;
41233;SDS011;26968;42.686;23.352;2023-04-06T00:03:59;20.63;;;11.60;;
41233;SDS011;26968;42.686;23.352;2023-04-06T00:06:25;18.52;;;11.75;;
41233;SDS011;26968;42.686;23.352;2023-04-06T00:08:50;19.52;;;11.77;;
41233;SDS011;26968;42.686;23.352;2023-04-06T00:11:16;16.95;;;11.07;;
41233;SDS011;26968;42.686;23.352;2023-04-06T00:13:41;14.73;;;9.30;;
41233;SDS011;26968;42.686;23.352;2023-04-06T00:16:07;20.13;;;11.73;;
41233;SDS011;26968;42.686;23.352;2023-04-06T00:18:32;20.92;;;11.18;;
41233;SDS011;26968;42.686;23.352;2023-04-06T00:20:58;20.73;;;12.35;;
41233;SDS011;26968;42.686;23.352;2023-04-06T00:23:23;17.27;;;10.85;;
41233;SDS011;26968;42.686;23.352;2023-04-06T00:25:48;19.65;;;11.25;;
41233;SDS011;26968;42.686;23.352;2023-04-06T00:28:14;24.35;;;11.63;;
41233;SDS011;26968;42.686;23.352;2023-04-06T00:30:40;18.95;;;11.82;;
41233;SDS011;26968;42.686;23.352;2023-04-06T00:33:06;17.42;;;10.95;;
41233;SDS011;26968;42.686;23.352;2023-04-06T00:35:31;19.88;;;10.93;;
41233;SDS011;26968;42.686;23.352;2023-04-06T00:37:57;19.63;;;11.95;;
41233;SDS011;26968;42.686;23.352;2023-04-06T00:40:22;18.10;;;11.68;;
41233;SDS011;26968;42.686;23.352;2023-04-06T00:42:48;19.55;;;11.13;;
41233;SDS011;26968;42.686;23.352;2023-04-06T00:45:13;17.10;;;11.13;;
41233;SDS011;26968;42.686;23.352;2023-04-06T00:47:39;21.60;;;11.18;;
41233;SDS011;26968;42.686;23.352;2023-04-06T00:50:05;20.10;;;11.65;;
41233;SDS011;26968;42.686;23.352;2023-04-06T00:52:30;19.05;;;10.77;;
41233;SDS011;26968;42.686;23.352;2023-04-06T00:54:56;20.23;;;11.48;;
41233;SDS011;26968;42.686;23.352;2023-04-06T00:57:21;19.52;;;11.88;;
41233;SDS011;26968;42.686;23.352;2023-04-06T00:59:47;18.45;;;11.18;;
41233;SDS011;26968;42.686;23.352;2023-04-06T01:02:12;19.92;;;12.30;;
41233;SDS011;26968;42.686;23.352;2023-04-06T01:04:38;17.75;;;10.48;;
41233;SDS011;26968;42.686;23.352;2023-04-06T01:07:03;18.50;;;11.02;;
41233;SDS011;26968;42.686;23.352;2023-04-06T01:09:29;15.45;;;10.57;;
41233;SDS011;26968;42.686;23.352;2023-04-06T01:11:56;18.10;;;11.02;;
41233;SDS011;26968;42.686;23.352;2023-04-06T01:14:22;16.40;;;9.80;;
41233;SDS011;26968;42.686;23.352;2023-04-06T01:16:48;19.58;;;11.45;;
41233;SDS011;26968;42.686;23.352;2023-04-06T01:19:14;15.35;;;10.40;;
41233;SDS011;26968;42.686;23.352;2023-04-06T01:21:39;17.17;;;10.68;;
41233;SDS011;26968;42.686;23.352;2023-04-06T01:24:06;19.02;;;11.50;;
41233;SDS011;26968;42.686;23.352;2023-04-06T01:26:33;22.88;;;14.57;;
41233;SDS011;26968;42.686;23.352;2023-04-06T01:28:59;24.33;;;13.50;;
41233;SDS011;26968;42.686;23.352;2023-04-06T01:31:25;22.75;;;12.60;;
41233;SDS011;26968;42.686;23.352;2023-04-06T01:33:51;24.02;;;13.05;;
41233;SDS011;26968;42.686;23.352;2023-04-06T01:36:17;21.10;;;12.57;;
41233;SDS011;26968;42.686;23.352;2023-04-06T01:38:43;19.02;;;11.77;;
41233;SDS011;26968;42.686;23.352;2023-04-06T01:41:09;19.90;;;11.95;;
41233;SDS011;26968;42.686;23.352;2023-04-06T01:43:34;21.30;;;13.30;;
41233;SDS011;26968;42.686;23.352;2023-04-06T01:46:00;21.98;;;12.88;;
41233;SDS011;26968;42.686;23.352;2023-04-06T01:48:28;21.83;;;12.60;;
41233;SDS011;26968;42.686;23.352;2023-04-06T01:50:54;20.52;;;11.20;;
41233;SDS011;26968;42.686;23.352;2023-04-06T01:53:20;21.52;;;11.55;;
41233;SDS011;26968;42.686;23.352;2023-04-06T01:55:46;20.02;;;12.75;;
41233;SDS011;26968;42.686;23.352;2023-04-06T01:58:12;18.45;;;11.77;;
41233;SDS011;26968;42.686;23.352;2023-04-06T02:00:39;22.30;;;12.18;;
41233;SDS011;26968;42.686;23.352;2023-04-06T02:03:04;18.65;;;11.40;;
41233;SDS011;26968;42.686;23.352;2023-04-06T02:05:30;17.77;;;11.73;;
41233;SDS011;26968;42.686;23.352;2023-04-06T02:07:58;18.67;;;11.48;;
41233;SDS011;26968;42.686;23.352;2023-04-06T02:10:23;20.80;;;12.15;;
41233;SDS011;26968;42.686;23.352;2023-04-06T02:12:49;20.90;;;12.00;;
41233;SDS011;26968;42.686;23.352;2023-04-06T02:15:15;23.13;;;13.05;;
41233;SDS011;26968;42.686;23.352;2023-04-06T02:17:41;23.40;;;12.70;;
41233;SDS011;26968;42.686;23.352;2023-04-06T02:20:07;22.73;;;12.80;;
41233;SDS011;26968;42.686;23.352;2023-04-06T02:22:34;21.08;;;13.30;;
41233;SDS011;26968;42.686;23.352;2023-04-06T02:25:00;19.30;;;12.20;;
41233;SDS011;26968;42.686;23.352;2023-04-06T02:27:26;18.05;;;11.60;;
41233;SDS011;26968;42.686;23.352;2023-04-06T02:29:51;23.15;;;12.80;;
41233;SDS011;26968;42.686;23.352;2023-04-06T02:32:17;19.95;;;11.73;;
41233;SDS011;26968;42.686;23.352;2023-04-06T02:34:42;19.33;;;12.45;;
41233;SDS011;26968;42.686;23.352;2023-04-06T02:37:08;15.45;;;11.35;;
41233;SDS011;26968;42.686;23.352;2023-04-06T02:39:33;17.80;;;11.23;;
41233;SDS011;26968;42.686;23.352;2023-04-06T02:41:58;20.83;;;11.52;;
41233;SDS011;26968;42.686;23.352;2023-04-06T02:44:24;20.75;;;12.75;;
41233;SDS011;26968;42.686;23.352;2023-04-06T02:46:50;22.58;;;11.23;;
41233;SDS011;26968;42.686;23.352;2023-04-06T02:49:15;20.00;;;11.50;;
41233;SDS011;26968;42.686;23.352;2023-04-06T02:51:41;17.25;;;11.32;;
41233;SDS011;26968;42.686;23.352;2023-04-06T02:54:06;18.23;;;10.38;;
41233;SDS011;26968;42.686;23.352;2023-04-06T02:56:32;16.90;;;11.30;;
41233;SDS011;26968;42.686;23.352;2023-04-06T02:58:57;18.95;;;10.77;;
41233;SDS011;26968;42.686;23.352;2023-04-06T03:01:23;21.17;;;11.13;;
41233;SDS011;26968;42.686;23.352;2023-04-06T03:03:48;15.10;;;10.02;;
41233;SDS011;26968;42.686;23.352;2023-04-06T03:06:13;17.27;;;11.02;;
41233;SDS011;26968;42.686;23.352;2023-04-06T03:08:39;18.40;;;10.75;;
41233;SDS011;26968;42.686;23.352;2023-04-06T03:11:04;19.85;;;11.02;;
41233;SDS011;26968;42.686;23.352;2023-04-06T03:13:30;16.08;;;10.48;;
41233;SDS011;26968;42.686;23.352;2023-04-06T03:15:55;18.67;;;11.50;;
41233;SDS011;26968;42.686;23.352;2023-04-06T03:18:21;18.67;;;10.93;;
41233;SDS011;26968;42.686;23.352;2023-04-06T03:20:48;21.92;;;11.35;;
41233;SDS011;26968;42.686;23.352;2023-04-06T03:23:13;18.17;;;10.60;;
41233;SDS011;26968;42.686;23.352;2023-04-06T03:25:39;16.20;;;9.75;;
41233;SDS011;26968;42.686;23.352;2023-04-06T03:28:04;14.45;;;9.05;;
41233;SDS011;26968;42.686;23.352;2023-04-06T03:30:30;18.13;;;10.52;;
41233;SDS011;26968;42.686;23.352;2023-04-06T03:32:55;22.42;;;10.73;;
41233;SDS011;26968;42.686;23.352;2023-04-06T03:35:21;16.52;;;9.68;;
41233;SDS011;26968;42.686;23.352;2023-04-06T03:37:46;16.70;;;9.18;;
41233;SDS011;26968;42.686;23.352;2023-04-06T03:40:12;14.80;;;9.80;;
41233;SDS011;26968;42.686;23.352;2023-04-06T03:42:37;18.33;;;10.93;;
41233;SDS011;26968;42.686;23.352;2023-04-06T03:45:02;16.42;;;10.65;;
41233;SDS011;26968;42.686;23.352;2023-04-06T03:47:28;19.35;;;10.50;;
41233;SDS011;26968;42.686;23.352;2023-04-06T03:49:53;16.42;;;10.35;;
41233;SDS011;26968;42.686;23.352;2023-04-06T03:52:20;15.52;;;9.68;;
41233;SDS011;26968;42.686;23.352;2023-04-06T03:54:48;15.85;;;9.70;;
41233;SDS011;26968;42.686;23.352;2023-04-06T03:57:13;16.33;;;10.13;;
41233;SDS011;26968;42.686;23.352;2023-04-06T03:59:39;19.58;;;11.60;;
41233;SDS011;26968;42.686;23.352;2023-04-06T04:02:04;22.63;;;13.63;;
41233;SDS011;26968;42.686;23.352;2023-04-06T04:04:30;18.17;;;11.32;;
41233;SDS011;26968;42.686;23.352;2023-04-06T04:06:55;22.80;;;12.63;;
41233;SDS011;26968;42.686;23.352;2023-04-06T04:09:21;24.42;;;12.73;;
41233;SDS011;26968;42.686;23.352;2023-04-06T04:11:46;24.42;;;14.02;;
41233;SDS011;26968;42.686;23.352;2023-04-06T04:14:11;24.13;;;12.60;;
41233;SDS011;26968;42.686;23.352;2023-04-06T04:16:37;22.27;;;12.65;;
41233;SDS011;26968;42.686;23.352;2023-04-06T04:19:04;21.48;;;10.65;;
41233;SDS011;26968;42.686;23.352;2023-04-06T04:21:30;25.73;;;12.18;;
41233;SDS011;26968;42.686;23.352;2023-04-06T04:23:57;24.80;;;13.02;;
41233;SDS011;26968;42.686;23.352;2023-04-06T04:26:22;26.33;;;13.40;;
41233;SDS011;26968;42.686;23.352;2023-04-06T04:28:48;19.88;;;11.80;;
41233;SDS011;26968;42.686;23.352;2023-04-06T04:31:13;23.40;;;12.90;;
41233;SDS011;26968;42.686;23.352;2023-04-06T04:33:39;23.73;;;12.27;;
41233;SDS011;26968;42.686;23.352;2023-04-06T04:36:05;19.48;;;11.20;;
41233;SDS011;26968;42.686;23.352;2023-04-06T04:38:30;21.55;;;12.52;;
41233;SDS011;26968;42.686;23.352;2023-04-06T04:40:56;23.90;;;13.40;;
41233;SDS011;26968;42.686;23.352;2023-04-06T04:43:21;27.15;;;13.05;;
41233;SDS011;26968;42.686;23.352;2023-04-06T04:45:46;20.05;;;11.68;;
41233;SDS011;26968;42.686;23.352;2023-04-06T04:48:12;23.23;;;12.73;;
41233;SDS011;26968;42.686;23.352;2023-04-06T04:50:40;24.15;;;14.77;;
41233;SDS011;26968;42.686;23.352;2023-04-06T04:53:05;29.17;;;14.70;;
41233;SDS011;26968;42.686;23.352;2023-04-06T04:55:31;23.02;;;12.02;;
41233;SDS011;26968;42.686;23.352;2023-04-06T04:57:57;22.63;;;12.32;;
41233;SDS011;26968;42.686;23.352;2023-04-06T05:00:22;22.42;;;12.52;;
41233;SDS011;26968;42.686;23.352;2023-04-06T05:02:49;22.30;;;12.18;;
41233;SDS011;26968;42.686;23.352;2023-04-06T05:05:14;21.65;;;12.55;;
41233;SDS011;26968;42.686;23.352;2023-04-06T05:07:40;24.10;;;11.25;;
41233;SDS011;26968;42.686;23.352;2023-04-06T05:10:05;18.42;;;11.30;;
41233;SDS011;26968;42.686;23.352;2023-04-06T05:12:31;20.65;;;12.02;;
41233;SDS011;26968;42.686;23.352;2023-04-06T05:14:57;23.00;;;11.65;;
41233;SDS011;26968;42.686;23.352;2023-04-06T05:17:22;22.67;;;11.98;;
41233;SDS011;26968;42.686;23.352;2023-04-06T05:19:49;23.73;;;13.02;;
41233;SDS011;26968;42.686;23.352;2023-04-06T05:22:15;23.42;;;13.68;;
41233;SDS011;26968;42.686;23.352;2023-04-06T05:24:42;25.33;;;13.02;;
41233;SDS011;26968;42.686;23.352;2023-04-06T05:27:08;23.60;;;13.82;;
41233;SDS011;26968;42.686;23.352;2023-04-06T05:29:34;20.77;;;12.27;;
41233;SDS011;26968;42.686;23.352;2023-04-06T05:32:00;23.02;;;13.07;;
41233;SDS011;26968;42.686;23.352;2023-04-06T05:34:26;22.05;;;13.63;;
41233;SDS011;26968;42.686;23.352;2023-04-06T05:36:51;30.95;;;14.60;;
41233;SDS011;26968;42.686;23.352;2023-04-06T05:39:17;26.92;;;15.05;;
41233;SDS011;26968;42.686;23.352;2023-04-06T05:41:42;34.75;;;16.75;;
41233;SDS011;26968;42.686;23.352;2023-04-06T05:44:08;37.90;;;15.52;;
41233;SDS011;26968;42.686;23.352;2023-04-06T05:46:33;26.63;;;13.05;;
41233;SDS011;26968;42.686;23.352;2023-04-06T05:48:59;22.80;;;13.48;;
41233;SDS011;26968;42.686;23.352;2023-04-06T05:51:24;23.83;;;13.52;;
41233;SDS011;26968;42.686;23.352;2023-04-06T05:53:51;26.20;;;14.18;;
41233;SDS011;26968;42.686;23.352;2023-04-06T05:56:18;29.77;;;15.93;;
41233;SDS011;26968;42.686;23.352;2023-04-06T05:58:44;32.05;;;17.27;;
41233;SDS011;26968;42.686;23.352;2023-04-06T06:01:09;29.83;;;15.93;;
41233;SDS011;26968;42.686;23.352;2023-04-06T06:03:35;28.88;;;15.10;;
41233;SDS011;26968;42.686;23.352;2023-04-06T06:06:01;31.02;;;14.77;;
41233;SDS011;26968;42.686;23.352;2023-04-06T06:08:28;32.03;;;16.42;;
41233;SDS011;26968;42.686;23.352;2023-04-06T06:10:53;27.23;;;16.13;;
41233;SDS011;26968;42.686;23.352;2023-04-06T06:13:19;36.00;;;17.95;;
41233;SDS011;26968;42.686;23.352;2023-04-06T06:15:45;38.40;;;20.23;;
41233;SDS011;26968;42.686;23.352;2023-04-06T06:18:11;39.70;;;19.83;;
41233;SDS011;26968;42.686;23.352;2023-04-06T06:20:36;39.28;;;19.67;;
41233;SDS011;26968;42.686;23.352;2023-04-06T06:23:05;27.27;;;16.35;;
41233;SDS011;26968;42.686;23.352;2023-04-06T06:29:14;26.60;;;14.45;;
41233;SDS011;26968;42.686;23.352;2023-04-06T06:31:43;30.77;;;16.73;;
41233;SDS011;26968;42.686;23.352;2023-04-06T06:34:08;27.80;;;15.90;;
41233;SDS011;26968;42.686;23.352;2023-04-06T06:36:34;33.25;;;17.95;;
41233;SDS011;26968;42.686;23.352;2023-04-06T06:39:02;28.83;;;14.48;;
41233;SDS011;26968;42.686;23.352;2023-04-06T06:41:34;34.70;;;17.38;;
41233;SDS011;26968;42.686;23.352;2023-04-06T06:44:00;29.23;;;15.57;;
41233;SDS011;26968;42.686;23.352;2023-04-06T06:46:26;27.30;;;15.30;;
41233;SDS011;26968;42.686;23.352;2023-04-06T06:48:51;28.63;;;16.40;;
41233;SDS011;26968;42.686;23.352;2023-04-06T06:51:19;26.75;;;15.02;;
41233;SDS011;26968;42.686;23.352;2023-04-06T06:53:45;31.08;;;14.93;;
41233;SDS011;26968;42.686;23.352;2023-04-06T06:56:12;30.88;;;15.73;;
41233;SDS011;26968;42.686;23.352;2023-04-06T06:58:37;31.98;;;16.13;;
41233;SDS011;26968;42.686;23.352;2023-04-06T07:01:03;29.48;;;15.57;;
41233;SDS011;26968;42.686;23.352;2023-04-06T07:03:30;27.42;;;15.25;;
41233;SDS011;26968;42.686;23.352;2023-04-06T07:05:55;27.95;;;14.43;;
41233;SDS011;26968;42.686;23.352;2023-04-06T07:08:21;25.77;;;14.98;;
41233;SDS011;26968;42.686;23.352;2023-04-06T07:10:48;29.60;;;17.55;;
41233;SDS011;26968;42.686;23.352;2023-04-06T07:13:15;29.80;;;17.27;;
41233;SDS011;26968;42.686;23.352;2023-04-06T07:15:47;28.08;;;15.65;;
41233;SDS011;26968;42.686;23.352;2023-04-06T07:18:13;28.88;;;16.08;;
41233;SDS011;26968;42.686;23.352;2023-04-06T07:20:39;28.67;;;14.40;;
41233;SDS011;26968;42.686;23.352;2023-04-06T07:23:04;30.02;;;15.57;;
41233;SDS011;26968;42.686;23.352;2023-04-06T07:25:30;32.35;;;16.05;;
41233;SDS011;26968;42.686;23.352;2023-04-06T07:27:55;24.92;;;14.15;;
41233;SDS011;26968;42.686;23.352;2023-04-06T07:30:22;24.55;;;14.07;;
41233;SDS011;26968;42.686;23.352;2023-04-06T07:32:48;25.63;;;14.48;;
41233;SDS011;26968;42.686;23.352;2023-04-06T07:35:14;32.53;;;15.30;;
41233;SDS011;26968;42.686;23.352;2023-04-06T07:37:39;33.80;;;15.65;;
41233;SDS011;26968;42.686;23.352;2023-04-06T07:40:05;24.42;;;13.07;;
41233;SDS011;26968;42.686;23.352;2023-04-06T07:42:31;30.73;;;16.63;;
41233;SDS011;26968;42.686;23.352;2023-04-06T07:45:20;32.72;;;17.42;;
41233;SDS011;26968;42.686;23.352;2023-04-06T07:47:48;30.00;;;15.98;;
41233;SDS011;26968;42.686;23.352;2023-04-06T07:50:14;23.77;;;12.85;;
41233;SDS011;26968;42.686;23.352;2023-04-06T07:52:40;29.13;;;15.25;;
41233;SDS011;26968;42.686;23.352;2023-04-06T07:55:06;30.10;;;13.88;;
41233;SDS011;26968;42.686;23.352;2023-04-06T07:57:32;27.13;;;15.23;;
41233;SDS011;26968;42.686;23.352;2023-04-06T07:59:57;29.17;;;15.38;;
41233;SDS011;26968;42.686;23.352;2023-04-06T08:02:23;26.40;;;15.20;;
41233;SDS011;26968;42.686;23.352;2023-04-06T08:04:48;26.17;;;15.25;;
41233;SDS011;26968;42.686;23.352;2023-04-06T08:07:15;29.50;;;15.63;;
41233;SDS011;26968;42.686;23.352;2023-04-06T08:09:40;23.65;;;14.82;;
41233;SDS011;26968;42.686;23.352;2023-04-06T08:12:06;27.88;;;13.52;;
41233;SDS011;26968;42.686;23.352;2023-04-06T08:14:31;26.63;;;14.35;;
41233;SDS011;26968;42.686;23.352;2023-04-06T08:16:57;24.38;;;13.38;;
41233;SDS011;26968;42.686;23.352;2023-04-06T08:19:22;28.17;;;15.23;;
41233;SDS011;26968;42.686;23.352;2023-04-06T08:21:48;21.13;;;9.98;;
41233;SDS011;26968;42.686;23.352;2023-04-06T08:24:13;22.40;;;13.23;;
41233;SDS011;26968;42.686;23.352;2023-04-06T08:26:40;21.58;;;12.35;;
41233;SDS011;26968;42.686;23.352;2023-04-06T08:29:06;20.00;;;11.63;;
41233;SDS011;26968;42.686;23.352;2023-04-06T08:31:34;20.35;;;12.15;;
41233;SDS011;26968;42.686;23.352;2023-04-06T08:34:00;23.35;;;13.25;;
41233;SDS011;26968;42.686;23.352;2023-04-06T08:36:27;21.50;;;13.05;;
41233;SDS011;26968;42.686;23.352;2023-04-06T08:38:52;23.70;;;12.05;;
41233;SDS011;26968;42.686;23.352;2023-04-06T08:41:21;24.33;;;12.82;;
41233;SDS011;26968;42.686;23.352;2023-04-06T08:43:47;20.88;;;12.27;;
41233;SDS011;26968;42.686;23.352;2023-04-06T08:46:15;24.35;;;12.15;;
41233;SDS011;26968;42.686;23.352;2023-04-06T08:48:41;20.90;;;13.15;;
41233;SDS011;26968;42.686;23.352;2023-04-06T08:51:10;22.63;;;11.82;;
41233;SDS011;26968;42.686;23.352;2023-04-06T08:53:37;27.50;;;13.77;;
41233;SDS011;26968;42.686;23.352;2023-04-06T08:56:03;25.63;;;12.95;;
41233;SDS011;26968;42.686;23.352;2023-04-06T08:58:32;25.63;;;12.60;;
41233;SDS011;26968;42.686;23.352;2023-04-06T09:00:59;25.30;;;13.60;;
41233;SDS011;26968;42.686;23.352;2023-04-06T09:03:32;20.98;;;11.63;;
41233;SDS011;26968;42.686;23.352;2023-04-06T09:05:59;20.20;;;10.60;;
41233;SDS011;26968;42.686;23.352;2023-04-06T09:08:25;20.80;;;12.60;;
41233;SDS011;26968;42.686;23.352;2023-04-06T09:10:51;19.35;;;12.02;;
41233;SDS011;26968;42.686;23.352;2023-04-06T09:13:17;22.63;;;13.35;;
41233;SDS011;26968;42.686;23.352;2023-04-06T09:15:43;18.05;;;11.07;;
41233;SDS011;26968;42.686;23.352;2023-04-06T09:18:09;18.45;;;11.10;;
41233;SDS011;26968;42.686;23.352;2023-04-06T09:20:35;28.83;;;11.95;;
41233;SDS011;26968;42.686;23.352;2023-04-06T09:23:00;18.90;;;10.30;;
41233;SDS011;26968;42.686;23.352;2023-04-06T09:25:26;18.33;;;12.00;;
41233;SDS011;26968;42.686;23.352;2023-04-06T09:27:59;23.02;;;12.80;;
41233;SDS011;26968;42.686;23.352;2023-04-06T09:30:26;21.98;;;12.68;;
41233;SDS011;26968;42.686;23.352;2023-04-06T09:32:53;25.40;;;14.10;;
41233;SDS011;26968;42.686;23.352;2023-04-06T09:35:21;19.58;;;13.13;;
41233;SDS011;26968;42.686;23.352;2023-04-06T09:37:48;21.73;;;11.18;;
41233;SDS011;26968;42.686;23.352;2023-04-06T09:40:16;23.92;;;12.70;;
41233;SDS011;26968;42.686;23.352;2023-04-06T09:42:46;19.58;;;12.07;;
41233;SDS011;26968;42.686;23.352;2023-04-06T09:45:13;21.05;;;12.00;;
41233;SDS011;26968;42.686;23.352;2023-04-06T09:47:40;24.48;;;13.48;;
41233;SDS011;26968;42.686;23.352;2023-04-06T09:50:09;23.90;;;13.73;;
41233;SDS011;26968;42.686;23.352;2023-04-06T09:52:41;37.22;;;14.50;;
41233;SDS011;26968;42.686;23.352;2023-04-06T09:58:06;21.08;;;11.32;;
41233;SDS011;26968;42.686;23.352;2023-04-06T10:00:39;21.77;;;11.23;;
41233;SDS011;26968;42.686;23.352;2023-04-06T10:03:14;20.60;;;11.40;;
41233;SDS011;26968;42.686;23.352;2023-04-06T10:05:57;20.02;;;12.25;;
41233;SDS011;26968;42.686;23.352;2023-04-06T10:08:26;20.08;;;11.73;;
41233;SDS011;26968;42.686;23.352;2023-04-06T10:10:53;26.08;;;13.57;;
41233;SDS011;26968;42.686;23.352;2023-04-06T10:13:20;19.85;;;12.57;;
41233;SDS011;26968;42.686;23.352;2023-04-06T10:15:46;17.17;;;9.95;;
41233;SDS011;26968;42.686;23.352;2023-04-06T10:18:13;16.98;;;10.23;;
41233;SDS011;26968;42.686;23.352;2023-04-06T10:20:50;18.02;;;10.50;;
41233;SDS011;26968;42.686;23.352;2023-04-06T10:23:19;32.17;;;11.70;;
41233;SDS011;26968;42.686;23.352;2023-04-06T10:25:55;20.60;;;12.57;;
41233;SDS011;26968;42.686;23.352;2023-04-06T10:28:22;16.23;;;11.18;;
41233;SDS011;26968;42.686;23.352;2023-04-06T10:30:56;18.45;;;9.90;;
41233;SDS011;26968;42.686;23.352;2023-04-06T10:33:22;16.98;;;11.15;;
41233;SDS011;26968;42.686;23.352;2023-04-06T10:35:47;23.10;;;11.45;;
41233;SDS011;26968;42.686;23.352;2023-04-06T10:38:13;16.60;;;8.85;;
41233;SDS011;26968;42.686;23.352;2023-04-06T10:40:40;17.55;;;10.98;;
41233;SDS011;26968;42.686;23.352;2023-04-06T10:43:18;17.60;;;10.77;;
41233;SDS011;26968;42.686;23.352;2023-04-06T10:45:45;19.83;;;11.07;;
41233;SDS011;26968;42.686;23.352;2023-04-06T10:48:20;19.10;;;10.80;;
41233;SDS011;26968;42.686;23.352;2023-04-06T10:50:49;19.50;;;10.73;;
41233;SDS011;26968;42.686;23.352;2023-04-06T10:53:23;15.63;;;10.02;;
41233;SDS011;26968;42.686;23.352;2023-04-06T10:55:54;17.92;;;9.85;;
41233;SDS011;26968;42.686;23.352;2023-04-06T10:58:23;18.23;;;11.05;;
41233;SDS011;26968;42.686;23.352;2023-04-06T11:00:49;22.15;;;10.95;;
41233;SDS011;26968;42.686;23.352;2023-04-06T11:03:16;16.92;;;10.20;;
41233;SDS011;26968;42.686;23.352;2023-04-06T11:05:45;16.58;;;9.75;;
41233;SDS011;26968;42.686;23.352;2023-04-06T11:08:30;18.17;;;10.23;;
41233;SDS011;26968;42.686;23.352;2023-04-06T11:11:07;23.90;;;11.32;;
41233;SDS011;26968;42.686;23.352;2023-04-06T11:13:45;15.95;;;10.52;;
41233;SDS011;26968;42.686;23.352;2023-04-06T11:18:55;17.75;;;10.15;;
41233;SDS011;26968;42.686;23.352;2023-04-06T11:21:37;17.25;;;9.65;;
41233;SDS011;26968;42.686;23.352;2023-04-06T11:26:44;13.55;;;9.38;;
41233;SDS011;26968;42.686;23.352;2023-04-06T11:29:13;22.30;;;10.35;;
41233;SDS011;26968;42.686;23.352;2023-04-06T11:31:41;12.35;;;8.82;;
41233;SDS011;26968;42.686;23.352;2023-04-06T11:34:11;17.30;;;10.48;;
41233;SDS011;26968;42.686;23.352;2023-04-06T11:36:47;15.13;;;9.10;;
41233;SDS011;26968;42.686;23.352;2023-04-06T11:39:20;14.27;;;8.68;;
41233;SDS011;26968;42.686;23.352;2023-04-06T11:41:48;19.05;;;10.57;;
41233;SDS011;26968;42.686;23.352;2023-04-06T11:44:28;17.48;;;10.52;;
41233;SDS011;26968;42.686;23.352;2023-04-06T11:46:58;17.60;;;10.20;;
41233;SDS011;26968;42.686;23.352;2023-04-06T11:49:27;15.82;;;10.55;;
41233;SDS011;26968;42.686;23.352;2023-04-06T11:51:54;34.10;;;10.90;;
41233;SDS011;26968;42.686;23.352;2023-04-06T11:54:32;14.63;;;9.68;;
41233;SDS011;26968;42.686;23.352;2023-04-06T11:56:59;16.38;;;10.15;;
41233;SDS011;26968;42.686;23.352;2023-04-06T11:59:26;20.38;;;10.35;;
41233;SDS011;26968;42.686;23.352;2023-04-06T12:01:52;19.15;;;10.73;;
41233;SDS011;26968;42.686;23.352;2023-04-06T12:04:18;15.10;;;9.63;;
41233;SDS011;26968;42.686;23.352;2023-04-06T12:06:44;17.63;;;9.93;;
41233;SDS011;26968;42.686;23.352;2023-04-06T12:09:10;24.13;;;11.23;;
41233;SDS011;26968;42.686;23.352;2023-04-06T12:11:35;16.80;;;8.82;;
41233;SDS011;26968;42.686;23.352;2023-04-06T12:14:01;20.80;;;10.40;;
41233;SDS011;26968;42.686;23.352;2023-04-06T12:16:29;21.88;;;11.65;;
41233;SDS011;26968;42.686;23.352;2023-04-06T12:18:55;20.67;;;9.93;;
41233;SDS011;26968;42.686;23.352;2023-04-06T12:21:21;15.25;;;10.32;;
41233;SDS011;26968;42.686;23.352;2023-04-06T12:23:47;15.00;;;9.32;;
41233;SDS011;26968;42.686;23.352;2023-04-06T12:26:12;13.63;;;8.98;;
41233;SDS011;26968;42.686;23.352;2023-04-06T12:28:38;17.55;;;10.57;;
41233;SDS011;26968;42.686;23.352;2023-04-06T12:31:03;19.08;;;9.73;;
41233;SDS011;26968;42.686;23.352;2023-04-06T12:33:29;14.75;;;9.00;;
41233;SDS011;26968;42.686;23.352;2023-04-06T12:35:55;16.65;;;9.40;;
41233;SDS011;26968;42.686;23.352;2023-04-06T12:38:21;18.42;;;8.85;;
41233;SDS011;26968;42.686;23.352;2023-04-06T12:40:47;21.30;;;9.50;;
41233;SDS011;26968;42.686;23.352;2023-04-06T12:43:12;18.08;;;9.27;;
41233;SDS011;26968;42.686;23.352;2023-04-06T12:45:39;16.13;;;8.60;;
41233;SDS011;26968;42.686;23.352;2023-04-06T12:48:05;19.45;;;12.68;;
41233;SDS011;26968;42.686;23.352;2023-04-06T12:50:31;15.25;;;9.02;;
41233;SDS011;26968;42.686;23.352;2023-04-06T12:52:57;15.20;;;9.55;;
41233;SDS011;26968;42.686;23.352;2023-04-06T12:55:22;70.70;;;20.35;;
41233;SDS011;26968;42.686;23.352;2023-04-06T12:57:48;21.30;;;11.15;;
41233;SDS011;26968;42.686;23.352;2023-04-06T13:00:13;21.50;;;10.00;;
41233;SDS011;26968;42.686;23.352;2023-04-06T13:02:39;24.30;;;9.70;;
41233;SDS011;26968;42.686;23.352;2023-04-06T13:05:08;15.02;;;9.80;;
41233;SDS011;26968;42.686;23.352;2023-04-06T13:07:33;19.65;;;9.50;;
41233;SDS011;26968;42.686;23.352;2023-04-06T13:09:59;21.10;;;10.07;;
41233;SDS011;26968;42.686;23.352;2023-04-06T13:12:24;17.42;;;9.73;;
41233;SDS011;26968;42.686;23.352;2023-04-06T13:14:51;19.65;;;11.63;;
41233;SDS011;26968;42.686;23.352;2023-04-06T13:17:17;18.00;;;10.23;;
41233;SDS011;26968;42.686;23.352;2023-04-06T13:19:43;23.45;;;11.13;;
41233;SDS011;26968;42.686;23.352;2023-04-06T13:22:08;14.63;;;8.80;;
41233;SDS011;26968;42.686;23.352;2023-04-06T13:24:34;14.93;;;9.32;;
41233;SDS011;26968;42.686;23.352;2023-04-06T13:26:59;22.63;;;10.13;;
41233;SDS011;26968;42.686;23.352;2023-04-06T13:29:25;22.35;;;10.73;;
41233;SDS011;26968;42.686;23.352;2023-04-06T13:31:51;16.58;;;10.05;;
41233;SDS011;26968;42.686;23.352;2023-04-06T13:34:16;14.25;;;10.38;;
41233;SDS011;26968;42.686;23.352;2023-04-06T13:36:42;13.95;;;8.90;;
41233;SDS011;26968;42.686;23.352;2023-04-06T13:39:08;12.23;;;8.85;;
41233;SDS011;26968;42.686;23.352;2023-04-06T13:41:33;16.17;;;9.38;;
41233;SDS011;26968;42.686;23.352;2023-04-06T13:43:59;21.88;;;11.82;;
41233;SDS011;26968;42.686;23.352;2023-04-06T13:46:25;17.17;;;10.25;;
41233;SDS011;26968;42.686;23.352;2023-04-06T13:48:52;17.67;;;9.75;;
41233;SDS011;26968;42.686;23.352;2023-04-06T13:51:18;13.18;;;9.00;;
41233;SDS011;26968;42.686;23.352;2023-04-06T13:53:43;15.73;;;8.82;;
41233;SDS011;26968;42.686;23.352;2023-04-06T13:56:09;17.83;;;8.90;;
41233;SDS011;26968;42.686;23.352;2023-04-06T13:58:34;14.13;;;8.88;;
41233;SDS011;26968;42.686;23.352;2023-04-06T14:01:01;14.23;;;8.40;;
41233;SDS011;26968;42.686;23.352;2023-04-06T14:03:28;14.23;;;8.00;;
41233;SDS011;26968;42.686;23.352;2023-04-06T14:05:53;17.13;;;9.30;;
41233;SDS011;26968;42.686;23.352;2023-04-06T14:08:19;14.40;;;8.30;;
41233;SDS011;26968;42.686;23.352;2023-04-06T14:10:44;15.02;;;9.73;;
41233;SDS011;26968;42.686;23.352;2023-04-06T14:13:11;19.15;;;10.10;;
41233;SDS011;26968;42.686;23.352;2023-04-06T14:15:36;14.18;;;8.27;;
41233;SDS011;26968;42.686;23.352;2023-04-06T14:18:02;16.40;;;9.70;;
41233;SDS011;26968;42.686;23.352;2023-04-06T14:20:27;15.90;;;8.57;;